Terminal Aerodrome Forecast
Issued by NWS

Home | Current Version | Previous Version | Text Only | Print | Product List | Glossary On
Versions: 1 2 3 4 5 6 7 8 9 10 11 12 13 14 15 16 17 18 19 20 21 22 23
827
FTPA31 PHFO 291328 AAA
TAFHLI
TAF AMD
PHLI 291328Z 2913/3012 35013KT P6SM VCSH SCT022 BKN045
     FM292000 36010KT P6SM FEW025 SCT050=

USA.gov is the U.S. government's official web portal to all federal, state and local government web resources and services.